Time;durP1;ratioP1;P1;durP2;ratioP2;P2;SDS_P1;SDS_P2;PMS_P1;PMS_P2;Temp;Humidity;BMP_temperature;BMP_pressure;BME280_temperature;BME280_humidity;BME280_pressure;Samples;Min_cycle;Max_cycle;Signal;HPM_P1;HPM_P2
2023/12/03 00:00:08;;;;;;;10.40;4.15;;;0.80;99.90;;;;;;5035544;28;20276;-51
2023/12/03 00:02:35;;;;;;;;;;;0.80;99.90;;;;;;5035948;28;20053;-50
2023/12/03 00:05:02;;;;;;;8.15;3.90;;;0.80;99.90;;;;;;5035770;28;19921;-52
2023/12/03 00:07:28;;;;;;;9.10;4.70;;;0.80;99.90;;;;;;5035303;28;20050;-52
2023/12/03 00:09:55;;;;;;;11.27;4.80;;;0.80;99.90;;;;;;5035182;28;20492;-53
2023/12/03 00:12:21;;;;;;;10.15;4.72;;;0.80;99.90;;;;;;5035443;28;20136;-52
2023/12/03 00:14:47;;;;;;;6.97;3.67;;;0.80;99.90;;;;;;5017940;28;20081;-51
2023/12/03 00:17:12;;;;;;;8.23;3.88;;;0.80;99.90;;;;;;5035364;28;20055;-51
2023/12/03 00:19:39;;;;;;;8.95;4.28;;;0.80;99.90;;;;;;5017840;28;20483;-49
2023/12/03 00:22:05;;;;;;;;;;;0.80;99.90;;;;;;5035686;28;20124;-51
2023/12/03 00:24:31;;;;;;;10.43;4.28;;;0.80;99.90;;;;;;5034978;28;20422;-49
2023/12/03 00:26:58;;;;;;;8.17;4.47;;;0.70;99.90;;;;;;5034838;28;20049;-51
2023/12/03 00:29:24;;;;;;;10.70;4.55;;;0.70;99.90;;;;;;5035041;28;20050;-52
2023/12/03 00:31:51;;;;;;;9.45;5.05;;;0.70;99.90;;;;;;5034956;28;20049;-51
2023/12/03 00:34:17;;;;;;;;;;;0.70;99.90;;;;;;5035530;28;20107;-50
2023/12/03 00:36:43;;;;;;;9.68;4.38;;;0.70;99.90;;;;;;5034867;28;20300;-51
2023/12/03 00:39:09;;;;;;;9.70;4.03;;;0.70;99.90;;;;;;5034663;28;20045;-50
2023/12/03 00:41:34;;;;;;;8.07;4.10;;;0.70;99.90;;;;;;5017494;28;20049;-52
2023/12/03 00:44:00;;;;;;;9.98;4.20;;;0.70;99.90;;;;;;5017184;28;20130;-52
2023/12/03 00:46:26;;;;;;;9.65;4.03;;;0.70;99.90;;;;;;5033912;28;20037;-49
2023/12/03 00:48:52;;;;;;;9.77;4.15;;;0.70;99.90;;;;;;5034531;28;20084;-49
2023/12/03 00:51:18;;;;;;;8.98;3.78;;;0.70;99.90;;;;;;5034578;28;20096;-50
2023/12/03 00:53:45;;;;;;;9.98;5.07;;;0.70;99.90;;;;;;5034348;28;20111;-51
2023/12/03 00:56:11;;;;;;;6.63;3.17;;;0.70;99.90;;;;;;5034558;28;20132;-51
2023/12/03 00:58:38;;;;;;;9.15;3.95;;;0.70;99.90;;;;;;5034476;28;20099;-48
2023/12/03 01:01:04;;;;;;;8.77;4.03;;;0.70;99.90;;;;;;5034495;28;20037;-48
2023/12/03 01:03:30;;;;;;;8.63;4.47;;;0.60;99.90;;;;;;5034680;28;20045;-48
2023/12/03 01:05:57;;;;;;;10.77;4.33;;;0.60;99.90;;;;;;5034019;28;20389;-48
2023/12/03 01:08:23;;;;;;;10.18;4.50;;;0.60;99.90;;;;;;5034165;28;20064;-48
2023/12/03 01:10:49;;;;;;;10.77;5.20;;;0.50;99.90;;;;;;5034305;28;20077;-49
2023/12/03 01:13:14;;;;;;;9.52;4.57;;;0.50;99.90;;;;;;5016583;28;20076;-49
2023/12/03 01:15:40;;;;;;;10.00;4.43;;;0.50;99.90;;;;;;5034332;28;20038;-48
2023/12/03 01:18:06;;;;;;;8.20;4.57;;;0.50;99.90;;;;;;5034030;28;20132;-48
2023/12/03 01:20:31;;;;;;;8.90;4.25;;;0.50;99.90;;;;;;5034313;28;20120;-48
2023/12/03 01:22:57;;;;;;;11.82;4.95;;;0.50;99.90;;;;;;5033909;28;20496;-48
2023/12/03 01:25:23;;;;;;;11.40;5.28;;;0.50;99.90;;;;;;5034010;28;20124;-49
2023/12/03 01:27:48;;;;;;;9.25;4.55;;;0.50;99.90;;;;;;5033883;28;20107;-48
2023/12/03 01:30:14;;;;;;;10.20;5.22;;;0.50;99.90;;;;;;5034385;28;20051;-48
2023/12/03 01:32:40;;;;;;;11.50;5.30;;;0.50;99.90;;;;;;5034039;28;20148;-48
2023/12/03 01:35:06;;;;;;;10.80;5.15;;;0.50;99.90;;;;;;5016581;28;20472;-49
2023/12/03 01:37:32;;;;;;;11.77;5.07;;;0.50;99.90;;;;;;5033839;28;20409;-48
2023/12/03 01:39:58;;;;;;;13.23;5.38;;;0.40;99.90;;;;;;5033899;28;20427;-48
2023/12/03 01:42:24;;;;;;;10.93;4.95;;;0.40;99.90;;;;;;4999959;28;20103;-48
2023/12/03 01:44:51;;;;;;;10.07;5.07;;;0.40;99.90;;;;;;5033808;28;20159;-48
2023/12/03 01:47:17;;;;;;;10.65;4.68;;;0.40;99.90;;;;;;5033538;28;20128;-49
2023/12/03 01:49:44;;;;;;;11.63;4.80;;;0.40;99.90;;;;;;5033719;28;20057;-48
2023/12/03 01:52:11;;;;;;;12.25;4.78;;;0.40;99.90;;;;;;5033482;28;20542;-48
2023/12/03 01:54:41;;;;;;;11.65;5.03;;;0.30;99.90;;;;;;5033691;28;20049;-48
2023/12/03 01:57:07;;;;;;;8.35;4.20;;;0.20;99.90;;;;;;5033516;28;20045;-49
2023/12/03 01:59:34;;;;;;;9.27;5.13;;;0.30;99.90;;;;;;5033673;28;20132;-48
2023/12/03 02:02:00;;;;;;;10.23;4.30;;;0.20;99.90;;;;;;5016089;28;20053;-48
2023/12/03 02:04:26;;;;;;;7.18;3.63;;;0.20;99.90;;;;;;5033331;28;20064;-49
2023/12/03 02:06:51;;;;;;;9.10;4.13;;;0.20;99.90;;;;;;5033375;28;20404;-48
2023/12/03 02:09:19;;;;;;;8.65;4.50;;;0.20;99.90;;;;;;5033800;28;20041;-48
2023/12/03 02:11:46;;;;;;;11.02;4.53;;;0.20;99.90;;;;;;5033549;28;20057;-48
2023/12/03 02:14:11;;;;;;;;;;;0.10;99.90;;;;;;5033949;28;20045;-48
2023/12/03 02:16:37;;;;;;;7.55;3.47;;;0.20;99.90;;;;;;5033469;28;20062;-48
2023/12/03 02:19:03;;;;;;;8.20;4.07;;;0.10;99.90;;;;;;5033351;28;20511;-48
2023/12/03 02:21:29;;;;;;;8.25;3.83;;;0.10;99.90;;;;;;5015627;28;20042;-48
2023/12/03 02:23:55;;;;;;;7.65;3.42;;;0.10;99.90;;;;;;5033406;28;20097;-48
2023/12/03 02:26:21;;;;;;;10.15;4.22;;;0.00;99.90;;;;;;5033328;28;20041;-48
2023/12/03 02:28:47;;;;;;;8.30;3.53;;;0.00;99.90;;;;;;5015999;28;20041;-48
2023/12/03 02:31:14;;;;;;;8.45;3.85;;;0.00;99.90;;;;;;5033516;28;20519;-48
2023/12/03 02:33:43;;;;;;;7.33;3.17;;;0.00;99.90;;;;;;5033344;28;20060;-48
2023/12/03 02:36:09;;;;;;;8.30;3.30;;;0.00;99.90;;;;;;5033028;28;20286;-48
2023/12/03 02:38:35;;;;;;;9.73;3.70;;;0.00;99.90;;;;;;5015816;28;20123;-48
2023/12/03 02:41:00;;;;;;;8.63;3.22;;;-0.10;99.90;;;;;;5033300;28;20488;-48
2023/12/03 02:43:26;;;;;;;7.15;3.38;;;-0.10;99.90;;;;;;5033243;28;20471;-48
2023/12/03 02:45:51;;;;;;;6.57;3.45;;;-0.10;99.90;;;;;;5015773;28;20508;-48
2023/12/03 02:48:17;;;;;;;9.80;3.60;;;-0.10;99.90;;;;;;5033124;28;20507;-51
2023/12/03 02:50:43;;;;;;;7.95;3.85;;;-0.10;99.90;;;;;;5032907;28;20492;-51
2023/12/03 02:53:08;;;;;;;8.50;3.35;;;-0.20;99.90;;;;;;5033033;28;20045;-51
2023/12/03 02:55:34;;;;;;;7.78;3.45;;;-0.10;99.90;;;;;;5033143;28;20053;-51
2023/12/03 02:58:00;;;;;;;7.97;3.97;;;-0.30;99.90;;;;;;5033111;28;20049;-51
2023/12/03 03:00:25;;;;;;;8.20;3.63;;;-0.30;99.90;;;;;;5032918;28;20054;-50
2023/12/03 03:02:53;;;;;;;9.25;3.70;;;-0.30;99.90;;;;;;5033038;28;20400;-52
2023/12/03 03:05:19;;;;;;;8.13;3.83;;;-0.30;99.90;;;;;;5032439;28;20500;-53
2023/12/03 03:07:45;;;;;;;8.10;3.63;;;-0.40;99.90;;;;;;5032987;28;20092;-51
2023/12/03 03:10:10;;;;;;;7.82;4.07;;;-0.40;99.90;;;;;;5017023;28;20503;-52
2023/12/03 03:12:36;;;;;;;10.45;4.43;;;-0.40;99.90;;;;;;5019149;28;20046;-52
2023/12/03 03:15:02;;;;;;;9.68;4.40;;;-0.40;99.90;;;;;;5036537;28;20048;-52
2023/12/03 03:17:27;;;;;;;9.23;4.43;;;-0.50;99.90;;;;;;5036314;28;20447;-51
2023/12/03 03:19:53;;;;;;;8.63;3.88;;;-0.50;99.90;;;;;;5018772;28;20045;-48
2023/12/03 03:22:19;;;;;;;11.85;4.47;;;-0.50;99.90;;;;;;5036289;28;20068;-49
2023/12/03 03:24:44;;;;;;;10.00;4.60;;;-0.50;99.90;;;;;;5018684;28;20503;-49
2023/12/03 03:27:10;;;;;;;9.18;4.22;;;-0.50;99.90;;;;;;5036182;28;20045;-51
2023/12/03 03:29:36;;;;;;;10.77;4.55;;;-0.40;99.90;;;;;;5035969;28;20050;-49
2023/12/03 03:32:02;;;;;;;8.85;4.13;;;-0.50;99.90;;;;;;5035840;28;20046;-48
2023/12/03 03:34:27;;;;;;;9.40;3.92;;;-0.50;99.90;;;;;;5035810;28;20052;-50
2023/12/03 03:36:53;;;;;;;7.70;3.60;;;-0.60;99.90;;;;;;5035966;28;20050;-49
2023/12/03 03:39:19;;;;;;;7.32;3.80;;;-0.60;99.90;;;;;;5003016;28;20176;-48
2023/12/03 03:41:44;;;;;;;8.15;3.50;;;-0.50;99.90;;;;;;5035977;28;20049;-48
2023/12/03 03:44:10;;;;;;;9.63;3.55;;;-0.60;99.90;;;;;;5035906;28;20041;-49
2023/12/03 03:46:36;;;;;;;7.00;3.38;;;-0.60;99.90;;;;;;5035830;28;20049;-48
2023/12/03 03:49:01;;;;;;;6.70;3.42;;;-0.60;99.90;;;;;;5001809;28;20120;-49
2023/12/03 03:51:27;;;;;;;7.40;3.25;;;-0.60;99.90;;;;;;5035814;28;20084;-48
2023/12/03 03:53:53;;;;;;;7.07;3.35;;;-0.70;99.90;;;;;;5018361;28;20081;-48
2023/12/03 03:56:18;;;;;;;7.72;3.38;;;-0.70;99.90;;;;;;5035678;28;20049;-48
2023/12/03 03:58:44;;;;;;;9.93;4.32;;;-0.80;99.90;;;;;;5035696;28;20484;-50
2023/12/03 04:01:10;;;;;;;9.82;4.43;;;-0.90;99.90;;;;;;5035680;28;20046;-48
2023/12/03 04:03:36;;;;;;;9.77;4.10;;;-1.10;99.90;;;;;;5035275;28;20053;-48
2023/12/03 04:06:05;;;;;;;9.10;4.23;;;-1.20;99.90;;;;;;5035510;28;20061;-48
2023/12/03 04:08:31;;;;;;;8.75;3.70;;;-1.30;99.90;;;;;;5017691;28;20060;-48
2023/12/03 04:10:57;;;;;;;8.10;3.73;;;-1.40;99.90;;;;;;5035458;28;20041;-48
2023/12/03 04:13:24;;;;;;;8.45;3.83;;;-1.40;99.90;;;;;;5035316;28;20056;-48
2023/12/03 04:15:50;;;;;;;7.55;3.65;;;-1.40;99.90;;;;;;5035302;28;20045;-48
2023/12/03 04:18:16;;;;;;;12.27;5.07;;;-1.40;99.90;;;;;;5035044;28;20083;-48
2023/12/03 04:20:41;;;;;;;8.88;4.45;;;-1.40;99.90;;;;;;5034461;28;20132;-49
2023/12/03 04:23:07;;;;;;;8.13;3.95;;;-1.50;99.90;;;;;;5034574;28;20129;-47
2023/12/03 04:25:33;;;;;;;10.10;4.55;;;-1.60;99.90;;;;;;5017686;28;20084;-49
2023/12/03 04:27:58;;;;;;;12.68;6.10;;;-1.70;99.90;;;;;;5035212;28;20041;-48
2023/12/03 04:30:24;;;;;;;11.00;5.45;;;-1.70;99.90;;;;;;5035063;28;20107;-48
2023/12/03 04:32:50;;;;;;;9.30;4.50;;;-1.80;99.90;;;;;;5034867;28;20077;-49
2023/12/03 04:35:15;;;;;;;11.35;5.40;;;-1.90;99.90;;;;;;5034969;28;20053;-49
2023/12/03 04:37:41;;;;;;;12.20;5.85;;;-1.90;99.90;;;;;;5034946;28;20043;-48
2023/12/03 04:40:09;;;;;;;12.55;5.60;;;-1.90;99.90;;;;;;5017364;28;20455;-48
2023/12/03 04:42:35;;;;;;;11.65;5.07;;;-1.90;99.90;;;;;;5017207;28;20128;-50
2023/12/03 04:45:01;;;;;;;11.93;5.55;;;-1.90;99.90;;;;;;5034681;28;20050;-48
2023/12/03 04:47:27;;;;;;;9.77;5.15;;;-2.00;99.90;;;;;;5034454;28;20049;-48
2023/12/03 04:49:52;;;;;;;11.55;5.47;;;-2.00;99.90;;;;;;5034666;28;20128;-48
2023/12/03 04:52:18;;;;;;;9.43;5.28;;;-2.00;99.90;;;;;;5034651;28;20084;-48
2023/12/03 04:54:44;;;;;;;10.75;4.78;;;-2.00;99.90;;;;;;5016973;28;20599;-49
2023/12/03 04:57:09;;;;;;;10.35;4.75;;;-2.00;99.90;;;;;;5034552;28;20037;-49
2023/12/03 04:59:35;;;;;;;9.68;5.35;;;-2.00;99.90;;;;;;5034599;28;20056;-49
2023/12/03 05:02:00;;;;;;;10.18;5.13;;;-2.00;99.90;;;;;;5034191;28;20045;-49
2023/12/03 05:04:27;;;;;;;12.95;5.75;;;-1.90;99.90;;;;;;5034112;28;20138;-48
2023/12/03 05:06:53;;;;;;;11.35;5.03;;;-1.70;99.90;;;;;;5034613;28;20402;-48
2023/12/03 05:09:19;;;;;;;9.30;4.50;;;-1.80;99.90;;;;;;5034276;28;20046;-48
2023/12/03 05:11:45;;;;;;;9.90;5.00;;;-1.70;99.90;;;;;;5034124;28;20471;-48
2023/12/03 05:14:11;;;;;;;8.55;4.45;;;-1.60;99.90;;;;;;5034288;28;20049;-48
2023/12/03 05:16:37;;;;;;;9.67;4.27;;;-1.50;99.90;;;;;;5016709;28;20473;-48
2023/12/03 05:19:03;;;;;;;8.73;3.73;;;-1.40;99.90;;;;;;5034632;28;20136;-49
2023/12/03 05:21:28;;;;;;;9.40;3.97;;;-1.40;99.90;;;;;;5016429;28;20080;-48
2023/12/03 05:23:54;;;;;;;8.82;4.55;;;-1.30;99.90;;;;;;5034031;28;20052;-48
2023/12/03 05:26:20;;;;;;;8.45;4.28;;;-1.20;99.90;;;;;;5016196;28;20049;-49
2023/12/03 05:28:45;;;;;;;9.95;4.22;;;-1.10;99.90;;;;;;5033935;28;20488;-51
2023/12/03 05:31:11;;;;;;;18.75;4.80;;;-1.10;99.90;;;;;;5033793;28;20045;-51
2023/12/03 05:33:37;;;;;;;9.95;5.10;;;-1.00;99.90;;;;;;5033639;28;20129;-52
2023/12/03 05:36:03;;;;;;;12.30;5.22;;;-0.90;99.90;;;;;;5034076;28;20050;-52
2023/12/03 05:38:29;;;;;;;11.30;4.88;;;-0.90;99.90;;;;;;5033887;28;20038;-52
2023/12/03 05:40:54;;;;;;;10.45;5.45;;;-0.80;99.90;;;;;;5033811;28;20076;-48
2023/12/03 05:43:20;;;;;;;10.88;5.53;;;-0.80;99.90;;;;;;5033770;28;20041;-53
2023/12/03 05:45:46;;;;;;;11.60;6.07;;;-0.70;99.90;;;;;;5033559;28;20111;-51
2023/12/03 05:48:11;;;;;;;13.52;6.65;;;-0.70;99.90;;;;;;5034017;28;20476;-52
2023/12/03 05:50:37;;;;;;;12.45;7.13;;;-0.60;99.90;;;;;;5033691;28;20049;-52
2023/12/03 05:53:03;;;;;;;14.18;7.72;;;-0.60;99.90;;;;;;5033805;28;20045;-52
2023/12/03 05:55:28;;;;;;;15.30;8.13;;;-0.60;99.90;;;;;;5033596;28;20056;-49
2023/12/03 05:57:54;;;;;;;16.83;8.60;;;-0.50;99.90;;;;;;5033588;28;20053;-52
2023/12/03 06:00:20;;;;;;;17.58;8.52;;;-0.50;99.90;;;;;;5015875;28;20055;-52
2023/12/03 06:02:45;;;;;;;18.83;8.77;;;-0.50;99.90;;;;;;5033682;28;20042;-52
2023/12/03 06:05:11;;;;;;;20.77;9.80;;;-0.40;99.90;;;;;;5015849;28;20400;-50
2023/12/03 06:07:37;;;;;;;19.85;10.43;;;-0.40;99.90;;;;;;5033468;28;20049;-52
2023/12/03 06:10:03;;;;;;;23.55;11.00;;;-0.40;99.90;;;;;;5033520;28;20042;-52
2023/12/03 06:12:29;;;;;;;24.98;12.18;;;-0.30;99.90;;;;;;5033354;28;20488;-50
2023/12/03 06:14:55;;;;;;;23.90;12.27;;;-0.30;99.90;;;;;;5015877;28;20045;-50
2023/12/03 06:17:21;;;;;;;21.55;11.43;;;-0.30;99.90;;;;;;5033295;28;20557;-51
2023/12/03 06:19:46;;;;;;;22.58;11.75;;;-0.30;99.90;;;;;;5015876;28;20132;-52
2023/12/03 06:22:12;;;;;;;26.20;12.73;;;-0.20;99.90;;;;;;5033402;28;20045;-49
2023/12/03 06:24:38;;;;;;;24.30;11.07;;;-0.20;99.90;;;;;;5033255;28;20128;-49
2023/12/03 06:27:04;;;;;;;23.02;11.75;;;-0.20;99.90;;;;;;5015663;28;20052;-50
2023/12/03 06:29:29;;;;;;;27.33;13.95;;;-0.20;99.90;;;;;;5033204;28;20054;-49
2023/12/03 06:31:55;;;;;;;25.35;12.32;;;-0.10;99.90;;;;;;5033107;28;20045;-49
2023/12/03 06:34:21;;;;;;;27.45;14.18;;;-0.10;99.90;;;;;;5033321;28;20492;-48
2023/12/03 06:36:47;;;;;;;25.73;12.25;;;-0.10;99.90;;;;;;5033121;28;20052;-49
2023/12/03 06:39:12;;;;;;;28.95;12.50;;;-0.10;99.90;;;;;;5015568;28;20046;-49
2023/12/03 06:41:38;;;;;;;29.17;13.32;;;0.00;99.90;;;;;;5033140;28;20045;-48
2023/12/03 06:44:04;;;;;;;24.55;11.85;;;0.00;99.90;;;;;;5015467;28;20049;-49
2023/12/03 06:46:30;;;;;;;22.83;11.13;;;0.00;99.90;;;;;;5036702;28;20144;-49
2023/12/03 06:48:55;;;;;;;24.08;10.32;;;0.10;99.90;;;;;;5019424;28;20045;-48
2023/12/03 06:51:21;;;;;;;25.95;11.10;;;0.10;99.90;;;;;;5036917;28;20041;-48
2023/12/03 06:53:47;;;;;;;21.88;8.98;;;0.10;99.90;;;;;;5037030;28;20068;-48
2023/12/03 06:56:12;;;;;;;22.35;9.18;;;0.20;99.90;;;;;;5036835;28;20420;-49
2023/12/03 06:58:38;;;;;;;18.52;9.05;;;0.20;99.90;;;;;;5036611;28;20041;-48
2023/12/03 07:01:04;;;;;;;17.70;8.45;;;0.20;99.90;;;;;;5019010;28;20041;-49
2023/12/03 07:03:30;;;;;;;22.38;9.00;;;0.30;99.90;;;;;;5037092;28;20145;-49
2023/12/03 07:05:55;;;;;;;21.15;8.93;;;0.40;99.90;;;;;;5036819;28;20140;-48
2023/12/03 07:08:21;;;;;;;16.92;8.48;;;0.30;99.90;;;;;;5036607;28;20042;-50
2023/12/03 07:10:47;;;;;;;20.58;8.43;;;0.30;99.90;;;;;;5036599;28;20049;-48
2023/12/03 07:13:13;;;;;;;20.52;8.65;;;0.30;99.90;;;;;;5036595;28;20088;-49
2023/12/03 07:15:38;;;;;;;18.67;8.48;;;0.40;99.90;;;;;;5036298;28;20056;-48
2023/12/03 07:18:04;;;;;;;23.85;8.40;;;0.40;99.90;;;;;;5036427;28;20064;-48
2023/12/03 07:20:30;;;;;;;19.42;8.48;;;0.40;99.90;;;;;;5018979;28;20052;-48
2023/12/03 07:22:55;;;;;;;23.65;8.32;;;0.50;99.90;;;;;;5036328;28;20053;-49
2023/12/03 07:25:24;;;;;;;26.55;9.70;;;0.40;99.90;;;;;;5018695;28;20085;-49
2023/12/03 07:27:49;;;;;;;19.73;8.55;;;0.40;99.90;;;;;;5035943;28;20038;-49
2023/12/03 07:30:15;;;;;;;19.20;8.30;;;0.50;99.90;;;;;;5036005;28;20049;-49
2023/12/03 07:32:41;;;;;;;21.17;8.50;;;0.50;99.90;;;;;;5035983;28;20523;-48
2023/12/03 07:35:07;;;;;;;20.05;8.20;;;0.50;99.90;;;;;;5002472;28;20045;-48
2023/12/03 07:37:32;;;;;;;23.13;8.90;;;0.50;99.90;;;;;;5018665;28;20053;-48
2023/12/03 07:39:58;;;;;;;23.50;9.48;;;0.50;99.90;;;;;;5036043;28;20292;-48
2023/12/03 07:42:27;;;;;;;22.35;8.35;;;0.50;99.90;;;;;;5035791;28;20056;-48
2023/12/03 07:44:53;;;;;;;21.45;8.88;;;0.50;99.90;;;;;;5035691;28;20046;-48
2023/12/03 07:47:18;;;;;;;19.73;7.03;;;0.60;99.90;;;;;;5017981;28;20041;-48
2023/12/03 07:49:44;;;;;;;18.50;7.30;;;0.60;99.90;;;;;;5035822;28;20103;-48
2023/12/03 07:52:10;;;;;;;18.27;7.55;;;0.60;99.90;;;;;;5018164;28;20045;-49
2023/12/03 07:54:35;;;;;;;20.65;6.78;;;0.60;99.90;;;;;;5035693;28;20480;-49
2023/12/03 07:57:02;;;;;;;20.25;6.80;;;0.60;99.90;;;;;;5035355;28;20038;-50
2023/12/03 07:59:29;;;;;;;18.13;7.72;;;0.60;99.90;;;;;;5001931;28;20125;-48
2023/12/03 08:01:54;;;;;;;22.13;8.32;;;0.60;99.90;;;;;;5035804;28;20183;-48
2023/12/03 08:04:20;;;;;;;18.02;7.47;;;0.70;99.90;;;;;;5035388;28;20128;-49
2023/12/03 08:06:46;;;;;;;23.98;7.85;;;0.70;99.90;;;;;;5018066;28;20054;-49
2023/12/03 08:09:11;;;;;;;23.00;8.05;;;0.70;99.90;;;;;;5035436;28;20049;-48
2023/12/03 08:11:37;;;;;;;20.73;8.70;;;0.70;99.90;;;;;;5017771;28;20191;-49
2023/12/03 08:14:03;;;;;;;24.95;8.23;;;0.70;99.90;;;;;;5035278;28;20045;-49
2023/12/03 08:16:29;;;;;;;25.30;7.22;;;0.70;99.90;;;;;;5035425;28;20463;-48
2023/12/03 08:18:55;;;;;;;21.33;6.68;;;0.70;99.90;;;;;;5035315;28;20082;-48
2023/12/03 08:21:20;;;;;;;22.02;7.10;;;0.70;99.90;;;;;;5035245;28;20045;-49
2023/12/03 08:23:46;;;;;;;26.08;7.57;;;0.80;99.90;;;;;;5035202;28;20103;-48
2023/12/03 08:26:12;;;;;;;20.73;8.50;;;0.80;99.90;;;;;;5035198;28;20132;-49
2023/12/03 08:28:38;;;;;;;23.13;7.57;;;0.80;99.90;;;;;;5017411;28;20037;-47
2023/12/03 08:31:04;;;;;;;20.45;6.88;;;0.80;99.90;;;;;;5035170;28;20045;-48
2023/12/03 08:33:29;;;;;;;27.63;7.93;;;0.80;99.90;;;;;;5035017;28;20049;-52
2023/12/03 08:35:57;;;;;;;24.48;7.47;;;0.80;99.90;;;;;;5035182;28;20084;-52
2023/12/03 08:38:22;;;;;;;;;;;0.80;99.90;;;;;;5035206;28;20050;-52
2023/12/03 08:40:48;;;;;;;24.63;8.18;;;0.90;99.90;;;;;;5034580;28;19935;-49
2023/12/03 08:43:15;;;;;;;19.63;6.82;;;0.80;99.90;;;;;;5034433;28;20100;-52
2023/12/03 08:45:41;;;;;;;;;;;0.80;99.90;;;;;;5035488;28;20127;-51
2023/12/03 08:48:07;;;;;;;25.40;8.60;;;0.90;99.90;;;;;;5034543;28;20015;-51
2023/12/03 08:50:32;;;;;;;196.60;68.37;;;0.90;99.90;;;;;;5034498;28;20539;-51
2023/12/03 08:52:58;;;;;;;136.65;49.30;;;0.90;99.90;;;;;;5034436;28;20045;-51
2023/12/03 08:55:24;;;;;;;262.53;107.40;;;0.90;99.90;;;;;;5034473;28;20045;-49
2023/12/03 08:57:50;;;;;;;367.75;206.88;;;0.90;99.90;;;;;;5016616;28;20122;-51
2023/12/03 09:00:16;;;;;;;72.32;48.78;;;0.90;99.90;;;;;;5034284;28;20111;-50
2023/12/03 09:02:46;;;;;;;43.38;31.85;;;0.90;99.90;;;;;;5034411;28;20049;-50
2023/12/03 09:05:12;;;;;;;24.15;10.55;;;0.90;99.90;;;;;;5034171;28;20053;-49
2023/12/03 09:07:38;;;;;;;44.65;28.15;;;0.90;99.90;;;;;;5015796;28;20085;-50
2023/12/03 09:10:05;;;;;;;28.52;10.85;;;1.00;99.90;;;;;;5033995;28;20104;-49
2023/12/03 09:12:31;;;;;;;27.65;11.05;;;1.00;99.90;;;;;;5033957;28;20057;-48
2023/12/03 09:14:57;;;;;;;25.48;10.20;;;0.90;99.90;;;;;;5034040;28;20115;-48
2023/12/03 09:17:23;;;;;;;24.88;9.00;;;1.00;99.90;;;;;;5034292;28;20046;-47
2023/12/03 09:19:49;;;;;;;29.63;13.35;;;1.00;99.90;;;;;;5034230;28;20370;-47
2023/12/03 09:22:15;;;;;;;37.53;16.83;;;1.00;99.90;;;;;;5034066;28;20132;-47
2023/12/03 09:24:41;;;;;;;34.20;17.13;;;1.00;99.90;;;;;;5033949;28;20049;-47
2023/12/03 09:27:06;;;;;;;24.25;9.27;;;1.10;99.90;;;;;;5033759;28;20053;-47
2023/12/03 09:29:32;;;;;;;23.38;8.45;;;1.20;99.90;;;;;;5034254;28;20076;-47
2023/12/03 09:31:57;;;;;;;27.58;9.32;;;1.10;99.90;;;;;;5016770;28;20048;-47
2023/12/03 09:34:23;;;;;;;28.90;10.10;;;1.10;99.90;;;;;;5034192;28;20553;-47
2023/12/03 09:36:49;;;;;;;28.27;9.20;;;1.10;99.90;;;;;;5033818;28;20483;-47
2023/12/03 09:39:14;;;;;;;31.38;12.68;;;1.10;99.90;;;;;;5034013;28;20041;-47
2023/12/03 09:41:49;;;;;;;30.13;10.98;;;1.10;99.90;;;;;;5033604;28;20060;-47
2023/12/03 09:44:39;;;;;;;27.05;9.05;;;1.10;99.90;;;;;;5016155;28;20380;-47
2023/12/03 09:47:08;;;;;;;28.10;9.07;;;1.20;99.90;;;;;;5016374;28;20120;-47
2023/12/03 09:49:38;;;;;;;39.80;16.83;;;1.20;99.90;;;;;;5033816;28;20045;-47
2023/12/03 09:52:06;;;;;;;33.63;13.95;;;1.20;99.90;;;;;;5033626;28;20488;-48
2023/12/03 09:54:32;;;;;;;31.20;12.25;;;1.30;99.90;;;;;;5016285;28;20053;-47
2023/12/03 09:56:59;;;;;;;32.38;12.10;;;1.30;99.90;;;;;;5033879;28;20076;-47
2023/12/03 09:59:27;;;;;;;34.70;15.57;;;1.30;99.90;;;;;;5033592;28;20052;-47
2023/12/03 10:01:55;;;;;;;27.20;10.10;;;1.30;99.90;;;;;;5033625;28;20045;-47
2023/12/03 10:04:21;;;;;;;28.77;13.25;;;1.30;99.90;;;;;;5033145;28;20099;-47
2023/12/03 10:06:50;;;;;;;31.63;13.10;;;1.30;99.90;;;;;;5016159;28;20459;-47
2023/12/03 10:09:16;;;;;;;33.20;14.60;;;1.40;99.90;;;;;;5033570;28;20500;-48
2023/12/03 10:11:50;;;;;;;25.10;9.82;;;1.40;99.90;;;;;;5016121;28;20124;-48
2023/12/03 10:14:17;;;;;;;28.70;11.82;;;1.40;99.90;;;;;;5033475;28;20041;-47
2023/12/03 10:16:49;;;;;;;30.40;10.25;;;1.50;99.90;;;;;;5033246;28;20485;-47
2023/12/03 10:19:25;;;;;;;32.45;11.30;;;1.50;99.90;;;;;;5035459;28;20132;-47
2023/12/03 10:21:52;;;;;;;26.48;10.43;;;1.50;99.90;;;;;;5037451;28;20052;-48
2023/12/03 10:24:21;;;;;;;29.45;10.20;;;1.50;99.90;;;;;;5037446;28;20054;-47
2023/12/03 10:26:51;;;;;;;29.55;11.63;;;1.50;99.90;;;;;;5037321;28;20046;-47
2023/12/03 10:29:19;;;;;;;26.08;10.23;;;1.50;99.90;;;;;;5037193;28;20053;-47
2023/12/03 10:31:48;;;;;;;28.65;11.27;;;1.50;99.90;;;;;;5037199;28;20095;-49
2023/12/03 10:34:14;;;;;;;32.47;13.38;;;1.60;99.90;;;;;;5037252;28;20053;-52
2023/12/03 10:36:44;;;;;;;26.40;10.55;;;1.50;99.90;;;;;;5037240;28;20096;-51
2023/12/03 10:39:16;;;;;;;29.55;11.35;;;1.60;99.90;;;;;;5037176;28;20041;-48
2023/12/03 10:41:46;;;;;;;30.65;12.63;;;1.60;99.90;;;;;;5037322;28;20369;-48
2023/12/03 10:44:24;;;;;;;28.77;12.02;;;1.60;99.90;;;;;;5036742;28;20481;-49
2023/12/03 10:46:52;;;;;;;;;;;1.60;99.90;;;;;;5037432;28;20045;-51
2023/12/03 10:49:20;;;;;;;30.90;11.98;;;1.60;99.90;;;;;;5019576;28;19921;-51
2023/12/03 10:51:47;;;;;;;28.70;13.57;;;1.60;99.90;;;;;;5037075;28;20111;-52
2023/12/03 10:54:13;;;;;;;26.30;11.95;;;1.60;99.90;;;;;;5036813;28;20107;-52
2023/12/03 10:56:40;;;;;;;29.83;12.82;;;1.60;99.90;;;;;;5019330;28;20041;-48
2023/12/03 10:59:10;;;;;;;;;;;1.70;99.90;;;;;;5019513;28;20049;-50
2023/12/03 11:01:47;;;;;;;32.30;12.00;;;1.70;99.90;;;;;;5036719;28;20360;-49
2023/12/03 11:04:20;;;;;;;27.83;11.70;;;1.70;99.90;;;;;;5036996;28;20071;-50
2023/12/03 11:06:49;;;;;;;27.95;11.75;;;1.80;99.90;;;;;;5036431;28;20045;-48
2023/12/03 11:09:15;;;;;;;29.58;12.52;;;1.80;99.90;;;;;;5036461;28;20519;-47
2023/12/03 11:11:41;;;;;;;30.45;12.43;;;1.80;99.90;;;;;;5036723;28;20050;-47
2023/12/03 11:14:07;;;;;;;34.30;13.48;;;1.90;99.90;;;;;;5036576;28;20128;-47
2023/12/03 11:17:00;;;;;;;31.70;12.70;;;1.90;99.90;;;;;;5036713;28;20088;-47
2023/12/03 11:19:28;;;;;;;28.38;11.98;;;1.90;99.90;;;;;;5028573;28;20639;-47
2023/12/03 11:22:20;;;;;;;31.08;13.70;;;1.90;99.90;;;;;;5036618;28;20052;-49
2023/12/03 11:24:58;;;;;;;29.25;12.60;;;1.90;99.90;;;;;;5036269;28;20049;-49
2023/12/03 11:27:25;;;;;;;28.90;12.55;;;2.00;99.90;;;;;;5036114;28;20504;-49
2023/12/03 11:29:53;;;;;;;29.65;12.85;;;2.00;99.90;;;;;;5018388;28;20050;-49
2023/12/03 11:32:20;;;;;;;28.73;12.98;;;2.00;99.90;;;;;;5036039;28;20099;-52
2023/12/03 11:34:59;;;;;;;35.42;14.20;;;2.00;99.90;;;;;;5035919;28;20518;-51
2023/12/03 11:37:27;;;;;;;27.45;12.50;;;2.00;99.90;;;;;;5036006;28;20045;-50
2023/12/03 11:39:55;;;;;;;28.38;12.02;;;2.00;99.90;;;;;;5036000;28;20045;-49
2023/12/03 11:42:23;;;;;;;28.58;12.23;;;2.10;99.90;;;;;;5035886;28;20049;-52
2023/12/03 11:44:49;;;;;;;25.90;11.63;;;2.10;99.90;;;;;;5036055;28;20045;-52
2023/12/03 11:47:15;;;;;;;32.25;12.63;;;2.10;99.90;;;;;;5018284;28;20407;-51
2023/12/03 11:49:41;;;;;;;28.00;12.13;;;2.10;99.90;;;;;;5035924;28;20048;-49
2023/12/03 11:52:07;;;;;;;30.10;12.55;;;2.20;99.90;;;;;;5035767;28;20087;-49
2023/12/03 11:54:58;;;;;;;29.58;12.70;;;2.10;99.90;;;;;;5035832;28;20045;-51
2023/12/03 11:57:24;;;;;;;27.33;11.88;;;2.10;99.90;;;;;;5035859;28;20049;-50
2023/12/03 11:59:50;;;;;;;28.83;12.02;;;2.10;99.90;;;;;;5035795;28;20045;-50
2023/12/03 12:02:16;;;;;;;32.22;12.95;;;2.10;99.90;;;;;;5002059;28;20130;-48
2023/12/03 12:04:41;;;;;;;28.77;12.75;;;2.10;99.90;;;;;;5035482;28;20111;-48
2023/12/03 12:07:15;;;;;;;29.42;12.45;;;2.10;99.90;;;;;;5035543;28;20049;-49
2023/12/03 12:09:40;;;;;;;29.70;12.80;;;2.10;99.90;;;;;;5035403;28;20103;-49
2023/12/03 12:12:06;;;;;;;25.55;12.32;;;2.10;99.90;;;;;;5035474;28;20136;-48
2023/12/03 12:14:32;;;;;;;29.13;13.45;;;2.10;99.90;;;;;;5035536;28;20050;-48
2023/12/03 12:16:57;;;;;;;30.00;13.57;;;2.10;99.90;;;;;;5035401;28;20530;-48
2023/12/03 12:19:23;;;;;;;23.25;11.77;;;2.10;99.90;;;;;;5035337;28;20053;-48
2023/12/03 12:21:53;;;;;;;30.48;12.98;;;2.10;99.90;;;;;;5017785;28;20057;-48
2023/12/03 12:24:19;;;;;;;26.98;12.55;;;2.10;99.90;;;;;;5035192;28;20058;-47
2023/12/03 12:26:45;;;;;;;29.20;13.18;;;2.10;99.90;;;;;;5035083;28;20045;-48
2023/12/03 12:29:12;;;;;;;31.23;14.10;;;2.10;99.90;;;;;;5035207;28;20080;-47
2023/12/03 12:31:37;;;;;;;;;;;2.10;99.90;;;;;;5035593;28;20041;-48
2023/12/03 12:34:03;;;;;;;22.90;10.85;;;2.20;99.90;;;;;;5034961;28;20402;-48
2023/12/03 12:36:30;;;;;;;25.90;12.65;;;2.10;99.90;;;;;;5034791;28;20045;-48
2023/12/03 12:38:56;;;;;;;24.17;11.82;;;2.20;99.90;;;;;;5034779;28;20068;-48
2023/12/03 12:41:22;;;;;;;29.17;13.57;;;2.10;99.90;;;;;;5034687;28;20046;-49